METAR Data
IDs: Format: Raw Decoded Include TAF

Data at: 2142 UTC 25 Apr 2019

Region: TOP
KATL 252052Z 22011KT 10SM FEW040 BKN060 BKN120 OVC250 23/14 A2990 RMK AO2 SLP117 T02280139 58006

KBOS 252054Z 10013KT 10SM FEW045 SCT250 11/05 A2994 RMK AO2 SLP137 T01110050 56004

KBWI 252054Z 07008KT 10SM FEW060 BKN120 BKN160 22/09 A2986 RMK AO2 SLP112 T02170094 56011

KCLE 252051Z 03006KT 10SM BKN029 OVC046 17/08 A2978 RMK AO2 SLP083 T01670083 58009 $

KCLT 252052Z 22010KT 10SM FEW080 BKN140 OVC250 24/16 A2987 RMK AO2 SLP107 T02440156 56011

KCVG 252052Z 07005KT 10SM FEW035 FEW055 SCT075 OVC150 22/17 A2971 RMK AO2 SLP053 SHRA VC SE-S 60000 T02170167 58022

KDCA 252052Z 10007KT 10SM FEW040 SCT085 BKN110 BKN200 24/09 A2985 RMK AO2 SLP107 T02440089 56015

KDEN 252053Z 03005KT 10SM FEW070 FEW220 16/M02 A3019 RMK AO2 SLP181 T01611017 56010

KDFW 252053Z 32011G19KT 10SM FEW040 FEW250 27/12 A2984 RMK AO2 SLP099 T02670117 50000

KDTW 252053Z 08004KT 10SM OVC023 15/06 A2977 RMK AO2 RAE1958 SLP080 P0000 60000 T01500061 58012

KEWR 252051Z 14007KT 10SM FEW005 BKN100 BKN150 OVC250 13/06 A2993 RMK AO2 RAE40 SLP135 FU FEW005 FU PLUME E DRFTG NW P0000 60000 T01330061 55001

KFLL 252053Z 16015KT 10SM FEW036 SCT160 BKN250 28/18 A2995 RMK AO2 SLP142 T02780178 56015

KIAD 252052Z 16007KT 10SM SCT090 SCT140 22/07 A2985 RMK AO2 SLP105 T02220072 56012

KIAH 252053Z 31010G17KT 10SM FEW060 29/15 A2983 RMK AO2 SLP101 T02890150 58007

KJFK 252051Z 17010KT 10SM -RA FEW075 BKN095 OVC110 11/08 A2996 RMK AO2 RAB33 SLP144 P0000 60000 T01110083 55006

KLAS 252056Z 08007KT 10SM FEW110 SCT250 34/01 A2991 RMK AO2 SLP104 T03440011 58020

KLAX 252053Z 26010KT 7SM FEW040 FEW090 19/12 A2998 RMK AO2 SLP150 T01890122 57007

KLGA 252051Z 19012KT 10SM -RA FEW080 OVC100 14/06 A2993 RMK AO2 RAB23 SLP135 P0000 60000 T01390056 55001

KMCO 252053Z 20009KT 10SM SCT060 BKN200 BKN250 30/16 A2994 RMK AO2 SLP138 T03000156 58013

KMDW 252053Z 08009KT 10SM FEW030 SCT150 OVC250 16/04 A2970 RMK AO2 SLP057 T01610039 56021

KMEM 252054Z 19011G22KT 10SM SCT008 BKN013 OVC019 19/18 A2968 RMK AO2 RAE30 SLP048 P0007 60009 T01940178 58012

KMIA 252053Z 12011G17KT 10SM FEW040 SCT150 BKN250 28/19 A2996 RMK AO2 SLP146 T02780194 56015

KMSP 252053Z 32014G21KT 10SM FEW250 22/M04 A2981 RMK AO2 SLP094 T02171044 56009

KORD 252051Z 10008KT 10SM OVC250 17/03 A2970 RMK AO2 SLP058 T01720033 56018

KPDX 252053Z 29011KT 10SM FEW150 OVC250 21/06 A3002 RMK AO2 SLP165 T02110061 56021

KPHL 252054Z 06004KT 10SM SCT085 BKN110 OVC250 19/08 A2991 RMK AO2 SLP128 60000 T01890083 58005 $

KPHX 252051Z 28008KT 240V340 10SM FEW120 FEW250 35/M01 A2987 RMK AO2 SLP096 T03501011 58021

KPIT 252051Z 13005KT 8SM -RA FEW009 BKN060 OVC095 16/14 A2981 RMK AO2 SLP101 P0000 60000 T01560144 58009

KSAN 252051Z 31008KT 10SM FEW012 21/13 A2999 RMK AO2 SLP156 T02110128 58007

KSEA 252053Z 35009KT 10SM SCT150 OVC200 16/06 A3012 RMK AO2 SLP206 T01560061 58020

KSFO 252056Z 30018KT 10SM FEW025 16/10 A2995 RMK AO2 SLP143 T01610100 55004

KSLC 252054Z 36008KT 10SM FEW055 FEW080 FEW100 BKN250 22/09 A3011 RMK AO2 SLP161 CB DSNT SE-S AND W TCU DSNT NE-E AND SW ACSL DSNT NE T02170089 57010

KSTL 252051Z 32007KT 8SM -RA FEW010 SCT040 OVC100 14/13 A2971 RMK AO2 SLP058 P0003 60008 T01440128 58008

KTPA 252053Z 21009KT 10SM FEW036 FEW160 BKN220 27/18 A2996 RMK AO2 SLP146 T02720183 57014